Pagina principală
METAR-TAF:

METAR-TAF

Aeroporturi :

Camiri, Bolivia

Latitudine: 20-00S, longitudine: 063-32W, elevație: 798 m

Observații meteo curente

Raportul a fost făcut în urmă cu 55 de minute, la 10:00 UTC
Vânt calm
Temperatură 15°C
Umiditate 100%
Presiune 1023 hPa
Vizibilitate: 0200 m
ceață,

METAR: SLCA 181000Z 00000KT 0200 FG VV/// 15/15 Q1023

Ora: 06:55 (10:55 UTC)


TAF: lipsă

Observații și prognoze meteo pentru peste 4.000 de aeroporturi (rapoarte METAR și TAF).

Stațiile disponibile sunt reprezentate pe hartă prin puncte galbene și roșii.

Țineți indicatorul mouse-ului pe punctul dorit pentru a vedea denumirea stației.

Apoi, faceți clic pentru a vedea observațiile și prognozele meteorologice.

Pentru a schimba harta: Pentru mărire, faceți clic pe butoanele verzi cu cruce neagră; pentru micșorare, pe butonul verde cu o liniuță; pentru hărți învecinate, pe săgețile verzi.


METAR-TAF: